Time;durP1;ratioP1;P1;durP2;ratioP2;P2;SDS_P1;SDS_P2;PMS_P1;PMS_P2;Temp;Humidity;BMP_temperature;BMP_pressure;BME280_temperature;BME280_humidity;BME280_pressure;Samples;Min_cycle;Max_cycle;Signal;HPM_P1;HPM_P2
2022/04/14 00:01:03;;;;;;;;;;;;;;;11.16;100.00;99784.59;5079101;28;19923;-77
2022/04/14 00:03:31;;;;;;;;;;;;;;;11.14;100.00;99780.19;5090675;28;19920;-77
2022/04/14 00:05:57;;;;;;;;;;;;;;;11.12;100.00;99776.66;5075773;28;20010;-78
2022/04/14 00:08:22;;;;;;;;;;;;;;;11.07;100.00;99777.41;5080781;28;19955;-78
2022/04/14 00:10:48;;;;;;;;;;;;;;;11.01;100.00;99777.31;5095150;28;19920;-77
2022/04/14 00:13:16;;;;;;;;;;;;;;;10.92;100.00;99772.75;5075689;28;19927;-77
2022/04/14 00:15:42;;;;;;;;;;;;;;;10.91;100.00;99766.63;5094366;28;19920;-78
2022/04/14 00:18:07;;;;;;;;;;;;;;;10.85;100.00;99765.63;5061286;28;19947;-77
2022/04/14 00:20:32;;;;;;;;;;;;;;;10.84;100.00;99763.84;5095785;28;19920;-78
2022/04/14 00:22:59;;;;;;;;;;;;;;;10.80;100.00;99752.38;5094752;28;20363;-77
2022/04/14 00:25:25;;;;;;;;;;;;;;;10.74;100.00;99749.66;5095455;28;19922;-78
2022/04/14 00:27:50;;;;;;;;;;;;;;;10.70;100.00;99746.03;5080997;28;20419;-76
2022/04/14 00:30:15;;;;;;;;;;;;;;;10.67;100.00;99732.81;5090277;28;19927;-74
2022/04/14 00:32:40;;;;;;;;;;;;;;;10.68;100.00;99728.47;5093330;28;19916;-75
2022/04/14 00:35:06;;;;;;;;;;;;;;;10.65;100.00;99718.75;5081478;28;20294;-75
2022/04/14 00:37:31;;;;;;;;;;;;;;;10.63;100.00;99714.31;5093328;28;20007;-74
2022/04/14 00:39:57;;;;;;;;;;;;;;;10.56;100.00;99703.69;5093367;28;19922;-75
2022/04/14 00:42:22;;;;;;;;;;;;;;;10.53;100.00;99701.03;5068082;28;19925;-74
2022/04/14 00:44:47;;;;;;;;;;;;;;;10.51;100.00;99693.94;5070513;28;19981;-73
2022/04/14 00:47:13;;;;;;;;;;;;;;;10.47;100.00;99689.47;5080310;28;19920;-76
2022/04/14 00:49:39;;;;;;;;;;;;;;;10.43;100.00;99680.66;5077582;28;19946;-76
2022/04/14 00:52:06;;;;;;;;;;;;;;;10.42;100.00;99655.19;5084888;28;19920;-75
2022/04/14 00:54:33;;;;;;;;;;;;;;;10.43;100.00;99648.19;5077028;28;19916;-75
2022/04/14 00:56:58;;;;;;;;;;;;;;;10.41;100.00;99635.00;5087442;28;19916;-77
2022/04/14 00:59:24;;;;;;;;;;;;;;;10.34;100.00;99623.47;5087814;28;19923;-77
2022/04/14 01:01:50;;;;;;;;;;;;;;;10.30;100.00;99619.00;5074494;28;19931;-74
2022/04/14 01:04:16;;;;;;;;;;;;;;;10.30;100.00;99608.47;5074311;28;19916;-78
2022/04/14 01:06:42;;;;;;;;;;;;;;;10.29;100.00;99597.94;5094043;28;19916;-76
2022/04/14 01:09:22;;;;;;;;;;;;;;;10.25;100.00;99591.69;5079389;28;19980;-78
2022/04/14 01:11:51;;;;;;;;;;;;;;;10.19;100.00;99583.72;5074821;28;19935;-78
2022/04/14 01:14:34;;;;;;;;;;;;;;;10.17;100.00;99578.41;5074068;28;19912;-74
2022/04/14 01:17:00;;;;;;;;;;;;;;;10.16;100.00;99559.97;5103372;28;19925;-75
2022/04/14 01:19:26;;;;;;;;;;;;;;;10.12;100.00;99558.19;5073992;28;19983;-75
2022/04/14 01:22:05;;;;;;;;;;;;;;;10.07;100.00;99547.56;5073862;28;19951;-74
2022/04/14 01:24:30;;;;;;;;;;;;;;;10.03;100.00;99543.97;5089760;28;20006;-75
2022/04/14 01:26:57;;;;;;;;;;;;;;;10.05;100.00;99536.13;5093812;28;20065;-74
2022/04/14 01:29:24;;;;;;;;;;;;;;;10.03;100.00;99522.94;5079839;28;19919;-77
2022/04/14 01:31:50;;;;;;;;;;;;;;;10.00;100.00;99516.75;5101303;28;19930;-76
2022/04/14 01:34:20;;;;;;;;;;;;;;;9.91;100.00;99511.34;5079225;28;19920;-77
2022/04/14 01:36:46;;;;;;;;;;;;;;;9.88;100.00;99501.66;5093286;28;19915;-78
2022/04/14 01:39:11;;;;;;;;;;;;;;;9.88;100.00;99488.50;5075795;28;20472;-76
2022/04/14 01:41:41;;;;;;;;;;;;;;;9.84;100.00;99465.66;5092301;28;19999;-75
2022/04/14 01:44:07;;;;;;;;;;;;;;;9.78;100.00;99465.56;5091368;28;19978;-76
2022/04/14 01:46:33;;;;;;;;;;;;;;;9.76;100.00;99438.38;5079899;28;20006;-75
2022/04/14 01:49:01;;;;;;;;;;;;;;;9.77;100.00;99430.50;5105319;28;20563;-76
2022/04/14 01:51:26;;;;;;;;;;;;;;;9.70;100.00;99416.34;5073595;28;20372;-76
2022/04/14 01:53:52;;;;;;;;;;;;;;;9.72;100.00;99405.00;5073667;28;19923;-76
2022/04/14 01:56:18;;;;;;;;;;;;;;;9.69;100.00;99400.56;5073600;28;19916;-76
2022/04/14 01:58:43;;;;;;;;;;;;;;;9.66;100.00;99379.47;5078382;28;19915;-75
2022/04/14 02:01:09;;;;;;;;;;;;;;;9.57;100.00;99379.34;5085528;28;19975;-77
2022/04/14 02:03:36;;;;;;;;;;;;;;;9.55;100.00;99365.28;5088000;28;19927;-78
2022/04/14 02:06:03;;;;;;;;;;;;;;;9.52;100.00;99355.59;5093979;28;19927;-74
2022/04/14 02:08:28;;;;;;;;;;;;;;;9.41;100.00;99342.28;5082587;28;20002;-77
2022/04/14 02:10:54;;;;;;;;;;;;;;;9.40;100.00;99323.88;5073633;28;20381;-75
2022/04/14 02:13:20;;;;;;;;;;;;;;;9.37;100.00;99322.09;5073756;28;19916;-77
2022/04/14 02:15:45;;;;;;;;;;;;;;;9.39;100.00;99309.88;5074407;28;19916;-78
2022/04/14 02:18:10;;;;;;;;;;;;;;;9.35;100.00;99284.41;5090052;28;19924;-77
2022/04/14 02:20:36;;;;;;;;;;;;;;;9.33;100.00;99286.13;5093983;28;20352;-76
2022/04/14 02:23:04;;;;;;;;;;;;;;;9.33;100.00;99267.75;5112143;28;20014;-78
2022/04/14 02:25:29;;;;;;;;;;;;;;;9.31;100.00;99258.97;5109500;28;19935;-76
2022/04/14 02:27:55;;;;;;;;;;;;;;;9.26;100.00;99237.88;5076631;28;20606;-76
2022/04/14 02:30:20;;;;;;;;;;;;;;;9.24;100.00;99228.19;5061050;28;20015;-76
2022/04/14 02:32:46;;;;;;;;;;;;;;;9.23;100.00;99227.31;5091711;28;19963;-77
2022/04/14 02:35:11;;;;;;;;;;;;;;;9.21;100.00;99213.25;5085990;28;20389;-75
2022/04/14 02:37:36;;;;;;;;;;;;;;;9.16;100.00;99193.94;5096447;28;19927;-79
2022/04/14 02:40:02;;;;;;;;;;;;;;;9.18;100.00;99180.81;5097541;28;19984;-78
2022/04/14 02:42:28;;;;;;;;;;;;;;;9.19;100.00;99175.59;5080885;28;20007;-75
2022/04/14 02:44:53;;;;;;;;;;;;;;;9.19;100.00;99161.59;5091140;28;19926;-75
2022/04/14 02:47:18;;;;;;;;;;;;;;;9.14;100.00;99151.91;5095729;28;20152;-75
2022/04/14 02:49:43;;;;;;;;;;;;;;;9.14;100.00;99151.91;5079868;28;19916;-75
2022/04/14 02:52:09;;;;;;;;;;;;;;;9.10;100.00;99142.19;5081312;28;20359;-75
2022/04/14 02:54:37;;;;;;;;;;;;;;;9.09;100.00;99139.56;5096494;28;19984;-75
2022/04/14 02:57:06;;;;;;;;;;;;;;;9.10;100.00;99131.69;5077200;28;20265;-74
2022/04/14 02:59:32;;;;;;;;;;;;;;;8.95;100.00;99136.75;5076450;28;19916;-74
2022/04/14 03:01:57;;;;;;;;;;;;;;;8.82;100.00;99130.41;5091652;28;19931;-74
2022/04/14 03:04:22;;;;;;;;;;;;;;;8.74;100.00;99132.03;5095952;28;20427;-74
2022/04/14 03:06:48;;;;;;;;;;;;;;;8.77;100.00;99117.22;5078991;28;19939;-74
2022/04/14 03:09:13;;;;;;;;;;;;;;;8.70;100.00;99110.13;5056677;28;19917;-74
2022/04/14 03:11:38;;;;;;;;;;;;;;;8.72;100.00;99107.53;5103956;28;19978;-75
2022/04/14 03:14:05;;;;;;;;;;;;;;;8.74;100.00;99092.69;5096193;28;19912;-76
2022/04/14 03:16:33;;;;;;;;;;;;;;;8.66;100.00;99073.31;5095266;28;19919;-76
2022/04/14 03:18:58;;;;;;;;;;;;;;;8.62;100.00;99031.28;5091370;28;19927;-77
2022/04/14 03:21:23;;;;;;;;;;;;;;;8.59;100.00;98996.22;5075783;28;20315;-77
2022/04/14 03:23:50;;;;;;;;;;;;;;;8.62;100.00;98968.31;5075011;28;19924;-75
2022/04/14 03:26:15;;;;;;;;;;;;;;;8.63;100.00;98961.31;5078257;28;19972;-77
2022/04/14 03:28:41;;;;;;;;;;;;;;;8.65;100.00;98945.59;5095187;28;20023;-76
2022/04/14 03:31:06;;;;;;;;;;;;;;;8.61;100.00;98927.19;5089659;28;19927;-74
2022/04/14 03:33:37;;;;;;;;;;;;;;;8.59;100.00;98915.81;5093872;28;19916;-75
2022/04/14 03:36:03;;;;;;;;;;;;;;;8.60;100.00;98901.81;5092108;28;19945;-76
2022/04/14 03:38:28;;;;;;;;;;;;;;;8.57;100.00;98899.13;5082443;28;19924;-76
2022/04/14 03:40:53;;;;;;;;;;;;;;;8.45;100.00;98904.22;5096002;28;19915;-77
2022/04/14 03:43:19;;;;;;;;;;;;;;;8.36;100.00;98883.09;5078577;28;20040;-75
2022/04/14 03:45:44;;;;;;;;;;;;;;;8.34;100.00;98861.22;5075644;28;19924;-74
2022/04/14 03:48:10;;;;;;;;;;;;;;;8.29;100.00;98847.16;5080643;28;20375;-75
2022/04/14 03:50:35;;;;;;;;;;;;;;;8.31;100.00;98829.72;5075453;28;19930;-74
2022/04/14 03:53:01;;;;;;;;;;;;;;;8.24;100.00;98865.47;5074551;28;19920;-76
2022/04/14 03:55:27;;;;;;;;;;;;;;;8.23;100.00;98845.34;5076301;28;20322;-74
2022/04/14 03:57:52;;;;;;;;;;;;;;;8.29;100.00;98831.44;5064802;28;19935;-75
2022/04/14 04:00:17;;;;;;;;;;;;;;;8.18;100.00;98837.41;5093184;28;20053;-76
2022/04/14 04:02:42;;;;;;;;;;;;;;;8.17;100.00;98809.47;5075535;28;20287;-76
2022/04/14 04:05:08;;;;;;;;;;;;;;;8.19;100.00;98784.13;5074310;28;19938;-75
2022/04/14 04:07:34;;;;;;;;;;;;;;;8.19;100.00;98722.97;5075221;28;19953;-77
2022/04/14 04:09:59;;;;;;;;;;;;;;;8.20;100.00;98708.97;5074752;28;20026;-75
2022/04/14 04:12:24;;;;;;;;;;;;;;;8.17;100.00;98691.47;5077902;28;19951;-75
2022/04/14 04:14:49;;;;;;;;;;;;;;;8.10;100.00;98692.25;5095085;28;19915;-75
2022/04/14 04:17:15;;;;;;;;;;;;;;;8.08;100.00;98687.00;5093295;28;19916;-76
2022/04/14 04:19:42;;;;;;;;;;;;;;;8.14;100.00;98680.97;5079809;28;20571;-74
2022/04/14 04:22:08;;;;;;;;;;;;;;;8.11;100.00;98669.53;5058350;28;19927;-75
2022/04/14 04:24:33;;;;;;;;;;;;;;;8.05;100.00;98668.63;5078630;28;19920;-76
2022/04/14 04:26:58;;;;;;;;;;;;;;;8.04;100.00;98664.22;5075522;28;20272;-76
2022/04/14 04:29:23;;;;;;;;;;;;;;;8.04;100.00;98661.59;5090846;28;19922;-75
2022/04/14 04:31:49;;;;;;;;;;;;;;;8.05;100.00;98657.25;5091278;28;19927;-75
2022/04/14 04:34:15;;;;;;;;;;;;;;;8.07;100.00;98655.53;5091546;28;20007;-75
2022/04/14 04:36:40;;;;;;;;;;;;;;;7.96;100.00;98667.66;5091439;28;19917;-75
2022/04/14 04:39:06;;;;;;;;;;;;;;;7.94;100.00;98675.47;5091699;28;19946;-76
2022/04/14 04:41:31;;;;;;;;;;;;;;;7.97;100.00;98674.63;5091919;28;19919;-76
2022/04/14 04:43:57;;;;;;;;;;;;;;;7.93;100.00;98663.22;5088788;28;19965;-75
2022/04/14 04:46:23;;;;;;;;;;;;;;;7.93;100.00;98665.84;5074639;28;20432;-75
2022/04/14 04:48:48;;;;;;;;;;;;;;;7.95;100.00;98666.75;5074741;28;19912;-76
2022/04/14 04:51:13;;;;;;;;;;;;;;;7.95;100.00;98671.13;5074293;28;19927;-76
2022/04/14 04:53:39;;;;;;;;;;;;;;;7.93;100.00;98681.56;5074594;28;20419;-75
2022/04/14 04:56:04;;;;;;;;;;;;;;;7.95;100.00;98681.59;5092198;28;19917;-75
2022/04/14 04:58:30;;;;;;;;;;;;;;;7.93;100.00;98680.72;5074500;28;19942;-76
2022/04/14 05:00:55;;;;;;;;;;;;;;;7.98;100.00;98692.13;5090713;28;19916;-76
2022/04/14 05:03:23;;;;;;;;;;;;;;;8.00;100.00;98716.59;5092092;28;20554;-75
2022/04/14 05:05:49;;;;;;;;;;;;;;;8.05;100.00;98709.69;5074090;28;19924;-75
2022/04/14 05:08:15;;;;;;;;;;;;;;;8.09;100.00;98714.09;5073890;28;19920;-75
2022/04/14 05:10:40;;;;;;;;;;;;;;;8.20;100.00;98706.34;5073908;28;20396;-75
2022/04/14 05:13:06;;;;;;;;;;;;;;;8.60;100.00;98678.81;5073557;28;19974;-74
2022/04/14 05:15:31;;;;;;;;;;;;;;;9.26;100.00;98636.44;5091126;28;20384;-75
2022/04/14 05:17:57;;;;;;;;;;;;;;;9.82;100.00;98592.88;5073527;28;19916;-74
2022/04/14 05:20:22;;;;;;;;;;;;;;;10.18;100.00;98583.31;5075089;28;20006;-75
2022/04/14 05:22:47;;;;;;;;;;;;;;;10.94;100.00;98525.41;5089981;28;19916;-76
2022/04/14 05:25:13;;;;;;;;;;;;;;;11.44;100.00;98510.28;5090583;28;19916;-76
2022/04/14 05:27:39;;;;;;;;;;;;;;;12.12;100.00;98494.03;5091301;28;19962;-77
2022/04/14 05:30:05;;;;;;;;;;;;;;;12.78;100.00;98496.06;5091179;28;19916;-75
2022/04/14 05:32:30;;;;;;;;;;;;;;;13.40;100.00;98588.78;5092998;28;19950;-76
2022/04/14 05:34:57;;;;;;;;;;;;;;;13.86;100.00;98780.44;5080356;28;19920;-77
2022/04/14 05:37:23;;;;;;;;;;;;;;;14.11;100.00;99080.13;5109456;28;20006;-77
2022/04/14 05:39:48;;;;;;;;;;;;;;;14.45;100.00;99246.72;5112330;28;20073;-76
2022/04/14 05:42:13;;;;;;;;;;;;;;;14.85;100.00;99364.84;5093276;28;19920;-76
2022/04/14 05:44:39;;;;;;;;;;;;;;;15.43;100.00;99408.72;5093813;28;19974;-77
2022/04/14 05:47:04;;;;;;;;;;;;;;;15.82;100.00;99450.91;5083358;28;19924;-77
2022/04/14 05:49:29;;;;;;;;;;;;;;;15.73;100.00;99550.03;5092031;28;19931;-77
2022/04/14 05:51:55;;;;;;;;;;;;;;;16.21;100.00;99643.56;5089119;28;19919;-77
2022/04/14 05:54:22;;;;;;;;;;;;;;;16.02;100.00;99780.88;5083813;28;20657;-77
2022/04/14 05:56:47;;;;;;;;;;;;;;;16.21;100.00;99905.63;5077706;28;20004;-78
2022/04/14 05:59:18;;;;;;;;;;;;;;;16.69;100.00;100026.88;5078108;28;19920;-77
2022/04/14 06:01:44;;;;;;;;;;;;;;;17.14;100.00;100186.38;5061952;28;19927;-77
2022/04/14 06:04:11;;;;;;;;;;;;;;;17.34;100.00;100297.19;5095685;28;19920;-77
2022/04/14 06:06:36;;;;;;;;;;;;;;;17.48;100.00;100399.22;5077132;28;19916;-76
2022/04/14 06:09:02;;;;;;;;;;;;;;;17.51;100.00;100484.41;5077373;28;19916;-77
2022/04/14 06:11:28;;;;;;;;;;;;;;;17.91;100.00;100516.44;5076947;28;19950;-78
2022/04/14 06:13:54;;;;;;;;;;;;;;;18.19;100.00;100547.53;5095209;28;19916;-77
2022/04/14 06:16:20;;;;;;;;;;;;;;;18.78;100.00;100588.34;5078081;28;19948;-78
2022/04/14 06:18:45;;;;;;;;;;;;;;;18.50;100.00;100632.81;5095439;28;19916;-78
2022/04/14 06:21:10;;;;;;;;;;;;;;;18.69;100.00;100687.03;5077234;28;19935;-78
2022/04/14 06:23:37;;;;;;;;;;;;;;;18.61;100.00;100737.69;5076859;28;19969;-78
2022/04/14 06:26:02;;;;;;;;;;;;;;;18.53;100.00;100816.78;5075969;28;20007;-78
2022/04/14 06:28:28;;;;;;;;;;;;;;;18.36;100.00;100832.75;5076801;28;20007;-77
2022/04/14 06:30:58;;;;;;;;;;;;;;;19.14;100.00;100878.31;5076915;28;19917;-77
2022/04/14 06:33:25;;;;;;;;;;;;;;;19.34;100.00;100902.38;5076669;28;20368;-78
2022/04/14 06:35:51;;;;;;;;;;;;;;;18.88;100.00;100960.97;5060742;28;19950;-75
2022/04/14 06:38:16;;;;;;;;;;;;;;;18.42;100.00;100969.59;5077221;28;20277;-78
2022/04/14 06:40:42;;;;;;;;;;;;;;;18.64;100.00;100935.06;5077306;28;20428;-77
2022/04/14 06:43:08;;;;;;;;;;;;;;;18.54;100.00;100982.13;5076871;28;19923;-77
2022/04/14 06:45:33;;;;;;;;;;;;;;;19.02;100.00;100998.38;5059857;28;19973;-78
2022/04/14 06:47:59;;;;;;;;;;;;;;;18.85;100.00;101041.00;5093124;28;20007;-78
2022/04/14 06:50:24;;;;;;;;;;;;;;;18.87;100.00;101015.22;5093685;28;19927;-77
2022/04/14 06:52:51;;;;;;;;;;;;;;;18.89;100.00;101050.78;5093244;28;19998;-75
2022/04/14 06:55:16;;;;;;;;;;;;;;;19.36;100.00;101092.81;5093663;28;19927;-78
2022/04/14 06:57:41;;;;;;;;;;;;;;;18.49;100.00;101058.53;5093280;28;19916;-78
2022/04/14 07:00:07;;;;;;;;;;;;;;;18.81;100.00;101055.16;5093313;28;19939;-77
2022/04/14 07:02:34;;;;;;;;;;;;;;;17.89;100.00;101050.94;5093159;28;19923;-77
2022/04/14 07:05:00;;;;;;;;;;;;;;;18.03;100.00;101010.22;5092193;28;19996;-78
2022/04/14 07:07:25;;;;;;;;;;;;;;;18.05;100.00;101020.03;5094142;28;19978;-77
2022/04/14 07:09:51;;;;;;;;;;;;;;;17.44;100.00;101052.25;5086356;28;19919;-78
2022/04/14 07:12:16;;;;;;;;;;;;;;;18.04;100.00;101001.38;5076570;28;20445;-78
2022/04/14 07:14:42;;;;;;;;;;;;;;;18.19;100.00;101062.75;5093981;28;20004;-77
2022/04/14 07:17:07;;;;;;;;;;;;;;;18.19;100.00;101056.53;5075427;28;20022;-77
2022/04/14 07:19:32;;;;;;;;;;;;;;;18.59;100.00;101065.69;5076625;28;19916;-77
2022/04/14 07:21:59;;;;;;;;;;;;;;;18.40;100.00;101082.47;5077934;28;19927;-78
2022/04/14 07:24:25;;;;;;;;;;;;;;;18.06;100.00;101059.09;5076658;28;19916;-78
2022/04/14 07:26:50;;;;;;;;;;;;;;;18.07;100.00;101074.22;5092094;28;19924;-78
2022/04/14 07:29:16;;;;;;;;;;;;;;;19.21;100.00;101110.56;5096785;28;19926;-77
2022/04/14 07:31:42;;;;;;;;;;;;;;;18.65;100.00;101132.41;5088300;28;19920;-78
2022/04/14 07:34:08;;;;;;;;;;;;;;;18.78;100.00;101125.41;5096436;28;20022;-75
2022/04/14 07:36:33;;;;;;;;;;;;;;;19.53;100.00;101197.03;5085001;28;19916;-76
2022/04/14 07:38:59;;;;;;;;;;;;;;;19.13;100.00;101162.13;5114211;28;19942;-76
2022/04/14 07:41:26;;;;;;;;;;;;;;;19.37;100.00;101193.41;5104011;28;19973;-76
2022/04/14 07:43:58;;;;;;;;;;;;;;;19.72;100.00;101251.44;5075231;28;19969;-75
2022/04/14 07:46:23;;;;;;;;;;;;;;;19.73;100.00;101268.34;5076339;28;20268;-75
2022/04/14 07:48:48;;;;;;;;;;;;;;;19.83;100.00;101310.31;5111889;28;20018;-76
2022/04/14 07:51:14;;;;;;;;;;;;;;;19.50;100.00;101303.84;5098764;28;19920;-79
2022/04/14 07:53:41;;;;;;;;;;;;;;;19.36;100.00;101317.09;5075279;28;20379;-75
2022/04/14 07:56:06;;;;;;;;;;;;;;;19.46;100.00;101314.50;5075687;28;20237;-76
2022/04/14 07:58:33;;;;;;;;;;;;;;;19.73;100.00;101303.06;5093309;28;20361;-76
2022/04/14 08:00:58;;;;;;;;;;;;;;;18.88;100.00;101259.81;5085574;28;19973;-76
2022/04/14 08:03:25;;;;;;;;;;;;;;;18.83;100.00;101270.41;5075121;28;20284;-75
2022/04/14 08:05:50;;;;;;;;;;;;;;;18.80;100.00;101210.78;5078542;28;19924;-77
2022/04/14 08:08:16;;;;;;;;;;;;;;;19.19;100.00;101249.34;5095306;28;19923;-77
2022/04/14 08:10:42;;;;;;;;;;;;;;;19.67;100.00;101285.25;5095172;28;20041;-76
2022/04/14 08:13:08;;;;;;;;;;;;;;;19.78;100.00;101321.84;5094830;28;20022;-75
2022/04/14 08:15:33;;;;;;;;;;;;;;;19.78;100.00;101304.06;5113134;28;19916;-76
2022/04/14 08:17:59;;;;;;;;;;;;;;;19.69;100.00;101318.22;5110914;28;20072;-76
2022/04/14 08:20:24;;;;;;;;;;;;;;;19.93;100.00;101342.41;5112446;28;19972;-76
2022/04/14 08:22:51;;;;;;;;;;;;;;;20.18;100.00;101328.28;5094757;28;19920;-76
2022/04/14 08:25:21;;;;;;;;;;;;;;;20.63;100.00;101446.13;5112188;28;19916;-75
2022/04/14 08:27:49;;;;;;;;;;;;;;;20.16;100.00;101422.75;5094184;28;19916;-79
2022/04/14 08:30:15;;;;;;;;;;;;;;;19.48;100.00;101390.19;5094539;28;19963;-76
2022/04/14 08:32:41;;;;;;;;;;;;;;;20.54;100.00;101420.25;5111712;28;19922;-75
2022/04/14 08:35:06;;;;;;;;;;;;;;;20.54;100.00;101425.59;5093536;28;20381;-75
2022/04/14 08:37:32;;;;;;;;;;;;;;;20.56;100.00;101436.31;5094424;28;20432;-76
2022/04/14 08:39:57;;;;;;;;;;;;;;;19.98;100.00;101405.72;5111811;28;20374;-77
2022/04/14 08:42:25;;;;;;;;;;;;;;;20.25;100.00;101401.41;5094650;28;19916;-77
2022/04/14 08:44:58;;;;;;;;;;;;;;;20.63;100.00;101472.88;5093849;28;19919;-75
2022/04/14 08:47:24;;;;;;;;;;;;;;;20.68;100.00;101487.22;5094464;28;20004;-77
2022/04/14 08:49:50;;;;;;;;;;;;;;;19.81;100.00;101538.31;5093307;28;19922;-77
2022/04/14 08:52:18;;;;;;;;;;;;;;;19.48;100.00;101464.97;5093298;28;19999;-76
2022/04/14 08:54:44;;;;;;;;;;;;;;;19.78;100.00;101476.81;5111896;28;19919;-76
2022/04/14 08:57:13;;;;;;;;;;;;;;;20.07;100.00;101514.47;5111729;28;19999;-77
2022/04/14 08:59:39;;;;;;;;;;;;;;;20.80;100.00;101562.22;5111572;28;19916;-76
2022/04/14 09:02:05;;;;;;;;;;;;;;;21.17;100.00;101648.03;5093526;28;19965;-77
2022/04/14 09:04:30;;;;;;;;;;;;;;;20.61;100.00;101636.09;5093681;28;20403;-77
2022/04/14 09:06:55;;;;;;;;;;;;;;;;;;5111233;28;19922;-77
2022/04/14 09:09:23;;;;;;;;;;;;;;;20.92;100.00;101675.59;5093477;28;19916;-77
2022/04/14 09:11:49;;;;;;;;;;;;;;;21.13;100.00;101718.56;5093740;28;19916;-77
2022/04/14 09:14:15;;;;;;;;;;;;;;;20.80;100.00;101720.13;5093268;28;19923;-77
2022/04/14 09:16:40;;;;;;;;;;;;;;;20.88;100.00;101773.72;5094024;28;19916;-77
2022/04/14 09:19:06;;;;;;;;;;;;;;;20.89;100.00;101796.03;5111839;28;20375;-78
2022/04/14 09:21:31;;;;;;;;;;;;;;;20.34;100.00;101796.34;5093161;28;20395;-79
2022/04/14 09:23:59;;;;;;;;;;;;;;;20.19;100.00;101779.28;5093495;28;19951;-78
2022/04/14 09:26:26;;;;;;;;;;;;;;;19.36;100.00;101739.03;5093933;28;19931;-78
2022/04/14 09:29:01;;;;;;;;;;;;;;;18.98;100.00;101696.66;5094517;28;19915;-78
2022/04/14 09:31:28;;;;;;;;;;;;;;;19.38;100.00;101744.38;5097551;28;19965;-77
2022/04/14 09:33:55;;;;;;;;;;;;;;;19.48;100.00;101743.66;5097037;28;19915;-75
2022/04/14 09:36:21;;;;;;;;;;;;;;;19.53;100.00;101744.59;5097440;28;20442;-76
2022/04/14 09:39:15;;;;;;;;;;;;;;;19.71;100.00;101754.59;5102753;28;19959;-77
2022/04/14 09:41:41;;;;;;;;;;;;;;;19.77;100.00;101779.66;5077799;28;20495;-77
2022/04/14 09:44:08;;;;;;;;;;;;;;;19.48;100.00;101807.75;5077846;28;19975;-77
2022/04/14 09:46:34;;;;;;;;;;;;;;;19.04;100.00;101777.72;5104081;28;19924;-77
2022/04/14 09:49:07;;;;;;;;;;;;;;;19.16;100.00;101770.78;5097273;28;20354;-77
2022/04/14 09:51:33;;;;;;;;;;;;;;;19.26;100.00;101755.78;5092448;28;19926;-77
2022/04/14 09:54:06;;;;;;;;;;;;;;;19.65;100.00;101793.72;5096215;28;19916;-77
2022/04/14 09:56:38;;;;;;;;;;;;;;;19.55;100.00;101809.63;5115998;28;19916;-77
2022/04/14 09:59:08;;;;;;;;;;;;;;;19.65;100.00;101815.09;5095750;28;19916;-76
2022/04/14 10:01:34;;;;;;;;;;;;;;;19.78;100.00;101837.56;5099859;28;19935;-76
2022/04/14 10:04:01;;;;;;;;;;;;;;;19.16;100.00;101841.97;5094553;28;19920;-75
2022/04/14 10:06:26;;;;;;;;;;;;;;;19.18;100.00;101841.09;5095088;28;20368;-77
2022/04/14 10:08:52;;;;;;;;;;;;;;;19.25;100.00;101838.53;5059789;28;19927;-78
2022/04/14 10:11:24;;;;;;;;;;;;;;;19.71;100.00;101842.78;5076164;28;19920;-77
2022/04/14 10:13:50;;;;;;;;;;;;;;;19.55;100.00;101862.16;5061198;28;20315;-78
2022/04/14 10:16:20;;;;;;;;;;;;;;;19.76;100.00;101861.56;5077833;28;19924;-78
2022/04/14 10:18:45;;;;;;;;;;;;;;;19.86;100.00;101858.19;5076921;28;19916;-78
2022/04/14 10:21:12;;;;;;;;;;;;;;;19.88;100.00;101891.16;5077175;28;19927;-77
2022/04/14 10:23:40;;;;;;;;;;;;;;;19.72;100.00;101876.66;5076735;28;19923;-77
2022/04/14 10:26:07;;;;;;;;;;;;;;;20.14;100.00;101890.63;5086178;28;20049;-77
2022/04/14 10:28:35;;;;;;;;;;;;;;;20.36;100.00;101886.44;5097925;28;19919;-78
2022/04/14 10:31:01;;;;;;;;;;;;;;;20.09;100.00;101901.25;5114821;28;20388;-78
2022/04/14 10:33:26;;;;;;;;;;;;;;;20.23;100.00;101892.53;5093059;28;19920;-78
2022/04/14 10:35:52;;;;;;;;;;;;;;;19.93;100.00;101898.34;5087628;28;19931;-78
2022/04/14 10:38:21;;;;;;;;;;;;;;;20.65;100.00;101907.34;5075907;28;20257;-78
2022/04/14 10:40:48;;;;;;;;;;;;;;;20.45;100.00;101929.34;5092593;28;19999;-77
2022/04/14 10:43:14;;;;;;;;;;;;;;;20.50;100.00;101955.28;5093288;28;19962;-77
2022/04/14 10:45:52;;;;;;;;;;;;;;;20.26;100.00;101954.97;5107553;28;19919;-77
2022/04/14 10:48:31;;;;;;;;;;;;;;;20.48;100.00;101959.69;5099007;28;19920;-77
2022/04/14 10:51:15;;;;;;;;;;;;;;;20.30;100.00;101957.69;5077115;28;19923;-74
2022/04/14 10:53:55;;;;;;;;;;;;;;;20.32;100.00;101951.47;5081190;28;20319;-75
2022/04/14 10:56:45;;;;;;;;;;;;;;;19.83;100.00;101930.31;5095074;28;20037;-74
2022/04/14 10:59:16;;;;;;;;;;;;;;;19.91;100.00;101939.31;5090303;28;19923;-74
2022/04/14 11:01:47;;;;;;;;;;;;;;;19.60;100.00;101945.94;5095547;28;19970;-78
2022/04/14 11:04:38;;;;;;;;;;;;;;;19.68;100.00;101960.31;5076346;28;19928;-77
2022/04/14 11:07:16;;;;;;;;;;;;;;;19.43;100.00;101966.13;5076153;28;19916;-77
2022/04/14 11:09:42;;;;;;;;;;;;;;;19.23;100.00;101966.66;5095037;28;19998;-82
2022/04/14 11:12:21;;;;;;;;;;;;;;;19.42;100.00;101975.00;5083834;28;19960;-82
2022/04/14 11:14:49;;;;;;;;;;;;;;;19.33;100.00;101952.63;5094631;28;19912;-78
2022/04/14 11:17:33;;;;;;;;;;;;;;;18.96;100.00;101927.94;5089143;28;19916;-77
2022/04/14 11:20:17;;;;;;;;;;;;;;;18.75;100.00;101891.06;5073335;28;19931;-77
2022/04/14 11:23:05;;;;;;;;;;;;;;;18.53;100.00;101870.16;5056087;28;19912;-80
2022/04/14 11:25:42;;;;;;;;;;;;;;;18.70;100.00;101855.38;5089547;28;20381;-76
2022/04/14 11:28:21;;;;;;;;;;;;;;;18.56;100.00;101857.78;5072695;28;19952;-77
2022/04/14 11:30:48;;;;;;;;;;;;;;;18.24;100.00;101868.72;5091074;28;19969;-78
2022/04/14 11:33:35;;;;;;;;;;;;;;;18.53;100.00;101865.72;5088872;28;19920;-78
2022/04/14 11:36:08;;;;;;;;;;;;;;;18.57;100.00;101880.03;5098756;28;20492;-79
2022/04/14 11:38:52;;;;;;;;;;;;;;;18.57;100.00;101864.91;5056001;28;19924;-77
2022/04/14 11:41:36;;;;;;;;;;;;;;;18.68;100.00;101867.78;5055955;28;20003;-82
2022/04/14 11:44:10;;;;;;;;;;;;;;;18.59;100.00;101879.16;5077427;28;19920;-76
2022/04/14 11:46:39;;;;;;;;;;;;;;;18.56;100.00;101873.78;5093317;28;19916;-80
2022/04/14 11:49:06;;;;;;;;;;;;;;;18.96;100.00;101917.25;5074423;28;19912;-76
2022/04/14 11:51:31;;;;;;;;;;;;;;;18.84;100.00;101933.94;5057887;28;19966;-74
2022/04/14 11:53:57;;;;;;;;;;;;;;;19.34;100.00;101933.06;5074857;28;19951;-77
2022/04/14 11:56:24;;;;;;;;;;;;;;;20.01;100.00;101951.06;5074694;28;19942;-75
2022/04/14 11:58:50;;;;;;;;;;;;;;;19.94;100.00;101967.88;5074510;28;19920;-76
2022/04/14 12:01:17;;;;;;;;;;;;;;;19.46;100.00;101968.88;5083887;28;21564;-78
2022/04/14 12:03:43;;;;;;;;;;;;;;;19.26;100.00;101968.50;5090692;28;19955;-76
2022/04/14 12:06:14;;;;;;;;;;;;;;;19.04;100.00;101967.22;5093219;28;19916;-76
2022/04/14 12:08:39;;;;;;;;;;;;;;;18.86;100.00;101955.31;5091916;28;19943;-76
2022/04/14 12:11:12;;;;;;;;;;;;;;;19.15;100.00;101968.31;5092002;28;20399;-77
2022/04/14 12:13:39;;;;;;;;;;;;;;;19.56;100.00;101978.84;5075347;28;19926;-77
2022/04/14 12:16:06;;;;;;;;;;;;;;;19.31;100.00;101986.44;5072529;28;19924;-76
2022/04/14 12:18:31;;;;;;;;;;;;;;;19.30;100.00;101989.94;5081689;28;19928;-78
2022/04/14 12:20:57;;;;;;;;;;;;;;;18.81;100.00;101987.19;5094965;28;19916;-76
2022/04/14 12:23:23;;;;;;;;;;;;;;;18.47;100.00;101973.19;5082954;28;19927;-76
2022/04/14 12:25:50;;;;;;;;;;;;;;;18.55;100.00;101976.03;5074236;28;19962;-77
2022/04/14 12:28:15;;;;;;;;;;;;;;;18.90;100.00;101980.31;5074143;28;19924;-76
2022/04/14 12:30:41;;;;;;;;;;;;;;;19.31;100.00;101989.09;5091657;28;19916;-79
2022/04/14 12:33:07;;;;;;;;;;;;;;;19.31;100.00;102007.78;5090454;28;19920;-74
2022/04/14 12:35:33;;;;;;;;;;;;;;;19.54;100.00;102020.63;5090950;28;20061;-75